Terminal Aerodrome Forecast
Issued by NWS Northern Indiana

Home | Current Version | Previous Version | Text Only | Print | Product List | Glossary On
Versions: 1 2 3 4 5 6 7 8 9 10 11 12 13 14 15 16 17
000
FTUS43 KIWX 011120
TAFFWA
TAF
KFWA 011120Z 0112/0212 03006KT 2SM BR OVC003
      TEMPO 0112/0114 1/2SM FG OVC002
     FM011500 02005KT 3SM BR OVC006
     FM011700 02007KT P6SM VCSH OVC015
     FM012100 03007KT 4SM -SHRA BR BKN025
     FM020200 04008KT 3SM -SHRA BR OVC015
     FM020500 05008KT 3SM -SHRA BR OVC008=

USA.gov is the U.S. government's official web portal to all federal, state and local government web resources and services.